createdAt,value
2023-05-16T00:00:38.176Z,99824.25
2023-05-16T00:03:06.773Z,99825.06
2023-05-16T00:05:33.780Z,99818.03
2023-05-16T00:08:03.984Z,99823.41
2023-05-16T00:10:31.119Z,99829.69
2023-05-16T00:12:58.249Z,99825.13
2023-05-16T00:15:27.133Z,99838.59
2023-05-16T00:18:00.875Z,99833.00
2023-05-16T00:20:28.855Z,99826.38
2023-05-16T00:22:56.337Z,99834.16
2023-05-16T00:25:23.583Z,99831.78
2023-05-16T00:27:53.358Z,99820.34
2023-05-16T00:30:20.419Z,99826.94
2023-05-16T00:32:52.553Z,99826.34
2023-05-16T00:35:19.953Z,99824.03
2023-05-16T00:37:47.099Z,99822.44
2023-05-16T00:40:17.364Z,99819.13
2023-05-16T00:42:44.543Z,99818.94
2023-05-16T00:45:12.238Z,99814.19
2023-05-16T00:47:44.353Z,99814.00
2023-05-16T00:50:11.525Z,99817.59
2023-05-16T00:52:39.438Z,99819.28
2023-05-16T00:55:07.181Z,99818.03
2023-05-16T00:57:34.890Z,99811.66
2023-05-16T01:00:06.789Z,99811.47
2023-05-16T01:02:35.779Z,99808.59
2023-05-16T01:05:05.432Z,99808.22
2023-05-16T01:07:32.843Z,99805.09
2023-05-16T01:10:00.300Z,99800.59
2023-05-16T01:12:57.394Z,99801.44
2023-05-16T01:15:35.848Z,99804.53
2023-05-16T01:18:02.965Z,99797.31
2023-05-16T01:20:36.352Z,99807.47
2023-05-16T01:23:16.209Z,99801.66
2023-05-16T01:25:47.099Z,99805.59
2023-05-16T01:28:16.560Z,99802.53
2023-05-16T01:30:44.838Z,99825.25
2023-05-16T01:33:12.651Z,99816.16
2023-05-16T01:35:46.255Z,99813.47
2023-05-16T01:38:26.705Z,99824.25
2023-05-16T01:41:05.042Z,99803.75
2023-05-16T01:43:43.693Z,99823.00
2023-05-16T01:46:16.287Z,99826.06
2023-05-16T01:49:44.584Z,99828.50
2023-05-16T01:52:16.710Z,99827.44
2023-05-16T01:54:45.736Z,99826.13
2023-05-16T01:57:13.401Z,99819.28
2023-05-16T01:59:43.124Z,99814.69
2023-05-16T02:02:11.036Z,99814.88
2023-05-16T02:04:38.922Z,99818.50
2023-05-16T02:07:07.367Z,99813.34
2023-05-16T02:09:36.365Z,99824.50
2023-05-16T02:12:04.693Z,99826.19
2023-05-16T02:14:31.939Z,99826.19
2023-05-16T02:16:59.332Z,99814.78
2023-05-16T02:19:26.619Z,99824.06
2023-05-16T02:21:53.549Z,99831.75
2023-05-16T02:24:20.699Z,99824.06
2023-05-16T02:26:47.758Z,99833.81
2023-05-16T02:29:16.414Z,99829.88
2023-05-16T02:31:43.853Z,99831.91
2023-05-16T02:34:11.198Z,99834.59
2023-05-16T02:36:38.271Z,99840.81
2023-05-16T02:39:07.737Z,99838.06
2023-05-16T02:41:34.779Z,99833.09
2023-05-16T02:44:08.024Z,99834.50
2023-05-16T02:46:35.937Z,99840.06
2023-05-16T02:49:04.504Z,99838.63
2023-05-16T02:51:31.571Z,99836.66
2023-05-16T02:54:00.100Z,99836.84
2023-05-16T02:56:30.191Z,99826.47
2023-05-16T02:58:57.177Z,99831.13
2023-05-16T03:01:24.676Z,99833.34
2023-05-16T03:03:59.312Z,99835.97
2023-05-16T03:06:26.575Z,99836.16
2023-05-16T03:08:56.590Z,99833.66
2023-05-16T03:11:26.070Z,99835.66
2023-05-16T03:13:53.202Z,99838.25
2023-05-16T03:16:20.360Z,99836.00
2023-05-16T03:18:48.753Z,99834.72
2023-05-16T03:21:15.799Z,99836.44
2023-05-16T03:23:45.527Z,99830.72
2023-05-16T03:26:12.572Z,99838.16
2023-05-16T03:28:39.712Z,99836.69
2023-05-16T03:31:06.887Z,99830.19
2023-05-16T03:33:36.900Z,99825.84
2023-05-16T03:36:04.211Z,99836.81
2023-05-16T03:38:31.383Z,99836.75
2023-05-16T03:41:01.737Z,99839.78
2023-05-16T03:43:29.041Z,99838.41
2023-05-16T03:45:59.923Z,99844.06
2023-05-16T03:48:27.091Z,99831.47
2023-05-16T03:51:15.633Z,99835.00
2023-05-16T03:54:01.275Z,99844.66
2023-05-16T03:56:28.692Z,99838.31
2023-05-16T03:58:59.409Z,99844.44
2023-05-16T04:01:45.017Z,99835.84
2023-05-16T04:04:11.987Z,99849.13
2023-05-16T04:06:39.992Z,99832.41
2023-05-16T04:09:09.824Z,99849.13
2023-05-16T04:11:38.913Z,99851.72
2023-05-16T04:14:05.984Z,99854.38
2023-05-16T04:16:33.207Z,99866.50
2023-05-16T04:19:00.328Z,99870.50
2023-05-16T04:21:27.790Z,99867.53
2023-05-16T04:23:54.826Z,99867.50
2023-05-16T04:26:22.701Z,99875.25
2023-05-16T04:29:09.150Z,99871.34
2023-05-16T04:31:57.003Z,99872.34
2023-05-16T04:34:29.657Z,99878.19
2023-05-16T04:36:57.154Z,99861.59
2023-05-16T04:39:26.919Z,99883.56
2023-05-16T04:41:54.787Z,99872.91
2023-05-16T04:44:22.013Z,99866.97
2023-05-16T04:46:49.174Z,99876.59
2023-05-16T04:49:16.830Z,99890.66
2023-05-16T04:51:43.792Z,99878.00
2023-05-16T04:54:10.957Z,99882.28
2023-05-16T04:56:37.950Z,99884.28
2023-05-16T04:59:05.244Z,99895.22
2023-05-16T05:01:32.585Z,99880.41
2023-05-16T05:04:18.560Z,99891.84
2023-05-16T05:06:45.807Z,99888.63
2023-05-16T05:09:12.772Z,99892.50
2023-05-16T05:11:40.895Z,99899.00
2023-05-16T05:14:09.531Z,99895.13
2023-05-16T05:16:37.770Z,99896.22
2023-05-16T05:19:05.898Z,99891.25
2023-05-16T05:21:33.088Z,99887.72
2023-05-16T05:24:00.246Z,99881.72
2023-05-16T05:26:28.172Z,99898.81
2023-05-16T05:29:04.432Z,99906.97
2023-05-16T05:31:35.146Z,99905.56
2023-05-16T05:34:03.604Z,99907.88
2023-05-16T05:36:31.266Z,99896.78
2023-05-16T05:38:58.766Z,99905.53
2023-05-16T05:41:26.991Z,99901.69
2023-05-16T05:43:56.524Z,99914.91
2023-05-16T05:46:25.442Z,99894.19
2023-05-16T05:48:52.664Z,99901.13
2023-05-16T05:51:20.166Z,99910.50
2023-05-16T05:53:47.403Z,99909.97
2023-05-16T05:56:14.510Z,99922.00
2023-05-16T05:58:47.383Z,99903.47
2023-05-16T06:01:17.429Z,99897.00
2023-05-16T06:03:44.581Z,99901.56
2023-05-16T06:06:11.561Z,99909.16
2023-05-16T06:08:47.788Z,99927.66
2023-05-16T06:11:15.229Z,99928.50
2023-05-16T06:13:45.469Z,99926.91
2023-05-16T06:16:13.931Z,99918.88
2023-05-16T06:18:41.089Z,99920.66
2023-05-16T06:21:08.270Z,99914.28
2023-05-16T06:23:36.091Z,99903.69
2023-05-16T06:26:11.731Z,99902.97
2023-05-16T06:28:41.859Z,99902.72
2023-05-16T06:31:10.625Z,99900.75
2023-05-16T06:33:43.395Z,99911.09
2023-05-16T06:36:15.642Z,99893.75
2023-05-16T06:38:43.565Z,99905.56
2023-05-16T06:41:10.567Z,99913.06
2023-05-16T06:43:37.634Z,99904.16
2023-05-16T06:46:05.068Z,99901.75
2023-05-16T06:48:34.316Z,99906.69
2023-05-16T06:51:04.802Z,99904.88
2023-05-16T06:53:32.046Z,99912.50
2023-05-16T06:55:59.362Z,99894.06
2023-05-16T06:58:33.803Z,99903.19
2023-05-16T07:01:03.532Z,99903.47
2023-05-16T07:03:32.325Z,99904.63
2023-05-16T07:05:59.471Z,99900.00
2023-05-16T07:08:26.542Z,99904.69
2023-05-16T07:10:53.608Z,99901.44
2023-05-16T07:13:23.783Z,99907.16
2023-05-16T07:15:51.725Z,99905.59
2023-05-16T07:18:21.072Z,99884.81
2023-05-16T07:20:48.645Z,99900.59
2023-05-16T07:23:18.081Z,99885.63
2023-05-16T07:25:45.328Z,99888.97
2023-05-16T07:28:12.532Z,99900.22
2023-05-16T07:30:40.274Z,99893.97
2023-05-16T07:33:07.422Z,99904.91
2023-05-16T07:35:34.683Z,99879.25
2023-05-16T07:38:08.571Z,99900.25
2023-05-16T07:40:39.039Z,99878.09
2023-05-16T07:43:08.207Z,99903.22
2023-05-16T07:45:40.845Z,99891.22
2023-05-16T07:48:08.070Z,99878.09
2023-05-16T07:50:35.156Z,99884.34
2023-05-16T07:53:02.429Z,99903.22
2023-05-16T07:55:32.486Z,99883.53
2023-05-16T07:57:59.574Z,99881.81
2023-05-16T08:00:26.851Z,99900.44
2023-05-16T08:02:54.393Z,99884.84
2023-05-16T08:05:21.705Z,99898.19
2023-05-16T08:07:53.697Z,99902.25
2023-05-16T08:10:21.057Z,99887.38
2023-05-16T08:12:48.508Z,99901.66
2023-05-16T08:15:18.848Z,99920.13
2023-05-16T08:17:46.409Z,99894.78
2023-05-16T08:20:13.791Z,99865.69
2023-05-16T08:22:41.252Z,99892.13
2023-05-16T08:25:12.056Z,99881.94
2023-05-16T08:27:39.491Z,99897.94
2023-05-16T08:30:11.560Z,99898.28
2023-05-16T08:32:41.569Z,99879.34
2023-05-16T08:35:09.029Z,99882.81
2023-05-16T08:37:38.110Z,99880.56
2023-05-16T08:40:08.480Z,99879.06
2023-05-16T08:42:36.149Z,99886.25
2023-05-16T08:45:03.939Z,99884.56
2023-05-16T08:47:33.324Z,99867.22
2023-05-16T08:50:04.476Z,99875.47
2023-05-16T08:52:34.836Z,99883.75
2023-05-16T08:55:11.073Z,99866.41
2023-05-16T08:57:44.613Z,99884.16
2023-05-16T09:00:12.982Z,99891.69
2023-05-16T09:02:47.172Z,99875.38
2023-05-16T09:05:16.469Z,99874.75
2023-05-16T09:07:45.944Z,99870.19
2023-05-16T09:10:13.956Z,99857.16
2023-05-16T09:12:42.271Z,99867.66
2023-05-16T09:15:13.083Z,99871.34
2023-05-16T09:17:50.103Z,99877.75
2023-05-16T09:20:23.299Z,99841.25
2023-05-16T09:23:02.288Z,99863.00
2023-05-16T09:25:33.020Z,99858.28
2023-05-16T09:28:26.142Z,99866.97
2023-05-16T09:31:00.226Z,99861.34
2023-05-16T09:33:46.542Z,99863.25
2023-05-16T09:36:19.787Z,99853.63
2023-05-16T09:39:24.665Z,99844.53
2023-05-16T09:42:18.737Z,99845.47
2023-05-16T09:45:04.655Z,99845.16
2023-05-16T09:47:32.943Z,99823.41
2023-05-16T09:50:21.744Z,99833.94
2023-05-16T09:52:48.839Z,99844.38
2023-05-16T09:55:26.305Z,99824.44
2023-05-16T09:58:12.805Z,99815.03
2023-05-16T10:00:57.376Z,99803.44
2023-05-16T10:03:41.000Z,99803.41
2023-05-16T10:06:09.330Z,99823.38
2023-05-16T10:08:37.286Z,99792.84
2023-05-16T10:11:06.100Z,99805.19
2023-05-16T10:13:39.687Z,99805.78
2023-05-16T10:16:48.710Z,99795.84
2023-05-16T10:19:40.418Z,99780.66
2023-05-16T10:22:08.054Z,99803.06
2023-05-16T10:25:17.058Z,99788.91
2023-05-16T10:27:45.026Z,99808.97
2023-05-16T10:30:37.507Z,99819.97
2023-05-16T10:33:08.026Z,99808.19
2023-05-16T10:35:42.578Z,99806.69
2023-05-16T10:38:30.233Z,99797.50
2023-05-16T10:41:03.758Z,99794.72
2023-05-16T10:43:31.306Z,99798.97
2023-05-16T10:46:10.868Z,99801.81
2023-05-16T10:48:44.020Z,99790.00
2023-05-16T10:51:23.579Z,99799.78
2023-05-16T10:53:55.113Z,99788.59
2023-05-16T10:56:27.204Z,99784.28
2023-05-16T10:59:02.169Z,99769.75
2023-05-16T11:01:36.119Z,99769.66
2023-05-16T11:04:06.461Z,99778.91
2023-05-16T11:06:42.981Z,99778.06
2023-05-16T11:09:29.441Z,99771.34
2023-05-16T11:12:00.403Z,99759.56
2023-05-16T11:14:34.780Z,99759.09
2023-05-16T11:17:07.198Z,99790.03
2023-05-16T11:19:48.030Z,99776.25
2023-05-16T11:22:26.991Z,99738.31
2023-05-16T11:25:05.941Z,99761.88
2023-05-16T11:27:57.853Z,99746.78
2023-05-16T11:30:31.092Z,99751.06
2023-05-16T11:32:58.281Z,99766.38
2023-05-16T11:35:26.038Z,99746.53
2023-05-16T11:37:53.483Z,99746.09
2023-05-16T11:40:20.888Z,99738.69
2023-05-16T11:42:48.551Z,99745.09
2023-05-16T11:45:58.081Z,99746.88
2023-05-16T11:48:35.632Z,99755.22
2023-05-16T11:51:03.702Z,99755.09
2023-05-16T11:53:30.893Z,99751.19
2023-05-16T11:56:02.279Z,99744.25
2023-05-16T11:58:32.123Z,99757.81
2023-05-16T12:00:59.401Z,99743.75
2023-05-16T12:03:26.554Z,99744.75
2023-05-16T12:05:55.237Z,99739.59
2023-05-16T12:08:22.741Z,99754.59
2023-05-16T12:10:51.722Z,99744.41
2023-05-16T12:13:22.741Z,99745.66
2023-05-16T12:16:09.654Z,99746.00
2023-05-16T12:18:41.850Z,99746.47
2023-05-16T12:21:10.768Z,99736.91
2023-05-16T12:23:37.862Z,99749.50
2023-05-16T12:26:08.658Z,99743.03
2023-05-16T12:28:37.934Z,99742.19
2023-05-16T12:31:23.140Z,99736.56
2023-05-16T12:33:58.620Z,99752.63
2023-05-16T12:36:26.690Z,99745.34
2023-05-16T12:38:54.106Z,99724.38
2023-05-16T12:41:22.710Z,99731.38
2023-05-16T12:43:50.160Z,99721.81
2023-05-16T12:46:18.853Z,99725.75
2023-05-16T12:48:51.292Z,99729.66
2023-05-16T12:51:19.466Z,99725.13
2023-05-16T12:54:01.254Z,99737.69
2023-05-16T12:56:44.737Z,99725.94
2023-05-16T12:59:12.819Z,99704.94
2023-05-16T13:01:40.846Z,99701.38
2023-05-16T13:04:16.049Z,99707.13
2023-05-16T13:06:56.797Z,99706.22
2023-05-16T13:09:29.988Z,99713.72
2023-05-16T13:11:58.551Z,99720.94
2023-05-16T13:14:25.959Z,99721.69
2023-05-16T13:16:53.137Z,99701.84
2023-05-16T13:19:34.384Z,99701.09
2023-05-16T13:22:01.678Z,99699.88
2023-05-16T13:24:31.397Z,99698.88
2023-05-16T13:27:27.355Z,99703.28
2023-05-16T13:29:57.122Z,99688.50
2023-05-16T13:32:27.852Z,99676.53
2023-05-16T13:34:56.051Z,99710.22
2023-05-16T13:37:24.631Z,99702.66
2023-05-16T13:39:52.857Z,99694.41
2023-05-16T13:42:19.939Z,99707.19
2023-05-16T13:44:47.655Z,99713.59
2023-05-16T13:47:14.840Z,99714.41
2023-05-16T13:49:44.168Z,99701.41
2023-05-16T13:52:13.877Z,99687.75
2023-05-16T13:54:41.710Z,99687.88
2023-05-16T13:57:08.891Z,99680.78
2023-05-16T14:02:06.216Z,99666.13
2023-05-16T14:04:33.568Z,99691.75
2023-05-16T14:07:01.671Z,99658.91
2023-05-16T14:09:28.736Z,99683.22
2023-05-16T14:11:56.193Z,99673.50
2023-05-16T14:14:27.188Z,99678.84
2023-05-16T14:16:54.365Z,99675.84
2023-05-16T14:19:23.552Z,99665.81
2023-05-16T14:21:53.632Z,99677.13
2023-05-16T14:24:20.657Z,99662.19
2023-05-16T14:26:48.022Z,99673.59
2023-05-16T14:29:15.044Z,99680.53
2023-05-16T14:31:42.550Z,99673.34
2023-05-16T14:36:56.891Z,99678.97
2023-05-16T14:39:24.046Z,99680.91
2023-05-16T14:41:51.425Z,99673.19
2023-05-16T14:44:20.473Z,99691.69
2023-05-16T14:46:48.082Z,99676.34
2023-05-16T14:49:18.045Z,99677.41
2023-05-16T14:51:50.605Z,99676.00
2023-05-16T14:54:20.300Z,99679.16
2023-05-16T14:56:47.522Z,99637.66
2023-05-16T14:59:14.712Z,99687.44
2023-05-16T15:01:42.127Z,99683.63
2023-05-16T15:04:09.349Z,99674.84
2023-05-16T15:06:36.717Z,99664.59
2023-05-16T15:09:03.881Z,99683.34
2023-05-16T15:11:33.259Z,99677.47
2023-05-16T15:14:01.892Z,99674.78
2023-05-16T15:16:30.432Z,99663.97
2023-05-16T15:19:04.067Z,99692.69
2023-05-16T15:21:33.471Z,99664.78
2023-05-16T15:24:01.021Z,99658.69
2023-05-16T15:26:28.268Z,99660.13
2023-05-16T15:28:55.845Z,99653.75
2023-05-16T15:31:23.234Z,99655.41
2023-05-16T15:33:52.830Z,99667.72
2023-05-16T15:36:19.863Z,99685.97
2023-05-16T15:38:47.673Z,99682.66
2023-05-16T15:41:31.921Z,99664.16
2023-05-16T15:44:03.347Z,99670.28
2023-05-16T15:46:43.587Z,99661.25
2023-05-16T15:49:12.996Z,99663.91
2023-05-16T15:51:42.715Z,99667.44
2023-05-16T15:54:10.359Z,99652.00
2023-05-16T15:56:37.451Z,99666.28
2023-05-16T15:59:08.416Z,99663.97
2023-05-16T16:01:35.702Z,99669.69
2023-05-16T16:04:07.934Z,99658.59
2023-05-16T16:06:37.982Z,99679.66
2023-05-16T16:09:05.102Z,99673.97
2023-05-16T16:11:32.388Z,99676.78
2023-05-16T16:13:59.608Z,99673.16
2023-05-16T16:16:27.232Z,99695.41
2023-05-16T16:18:58.037Z,99700.19
2023-05-16T16:21:25.271Z,99691.72
2023-05-16T16:23:52.325Z,99703.84
2023-05-16T16:26:19.714Z,99711.56
2023-05-16T16:28:47.469Z,99701.88
2023-05-16T16:31:17.713Z,99703.28
2023-05-16T16:33:58.466Z,99688.34
2023-05-16T16:36:25.780Z,99687.28
2023-05-16T16:38:53.078Z,99719.09
2023-05-16T16:41:24.814Z,99703.94
2023-05-16T16:43:54.357Z,99699.28
2023-05-16T16:46:32.049Z,99721.75
2023-05-16T16:49:04.722Z,99727.06
2023-05-16T16:51:38.999Z,99716.03
2023-05-16T16:54:07.568Z,99730.66
2023-05-16T16:56:34.739Z,99736.09
2023-05-16T16:59:02.329Z,99735.88
2023-05-16T17:01:32.195Z,99725.75
2023-05-16T17:04:00.282Z,99723.94
2023-05-16T17:06:30.033Z,99711.44
2023-05-16T17:09:07.472Z,99718.03
2023-05-16T17:11:43.168Z,99712.88
2023-05-16T17:14:16.222Z,99728.97
2023-05-16T17:17:01.601Z,99710.75
2023-05-16T17:19:29.096Z,99727.13
2023-05-16T17:21:56.655Z,99724.66
2023-05-16T17:24:23.765Z,99731.75
2023-05-16T17:27:09.455Z,99717.03
2023-05-16T17:29:38.749Z,99729.56
2023-05-16T17:32:09.193Z,99714.56
2023-05-16T17:34:36.602Z,99725.72
2023-05-16T17:37:06.286Z,99747.31
2023-05-16T17:39:34.243Z,99745.94
2023-05-16T17:42:02.249Z,99751.63
2023-05-16T17:44:36.840Z,99748.63
2023-05-16T17:47:11.514Z,99751.31
2023-05-16T17:49:44.929Z,99733.00
2023-05-16T17:52:12.249Z,99734.31
2023-05-16T17:54:39.610Z,99751.81
2023-05-16T17:57:07.007Z,99748.19
2023-05-16T17:59:39.836Z,99745.19
2023-05-16T18:02:10.119Z,99766.75
2023-05-16T18:04:37.205Z,99756.84
2023-05-16T18:07:08.078Z,99764.50
2023-05-16T18:09:35.760Z,99760.41
2023-05-16T18:12:21.514Z,99756.84
2023-05-16T18:14:48.985Z,99769.91
2023-05-16T18:17:18.117Z,99765.25
2023-05-16T18:19:54.127Z,99766.88
2023-05-16T18:22:24.759Z,99770.13
2023-05-16T18:24:52.183Z,99759.69
2023-05-16T18:27:19.294Z,99766.78
2023-05-16T18:29:46.500Z,99763.50
2023-05-16T18:32:32.314Z,99765.09
2023-05-16T18:34:59.605Z,99758.00
2023-05-16T18:37:30.114Z,99754.09
2023-05-16T18:39:57.287Z,99770.78
2023-05-16T18:42:25.926Z,99769.41
2023-05-16T18:45:03.065Z,99761.66
2023-05-16T18:47:32.161Z,99792.19
2023-05-16T18:50:17.860Z,99782.44
2023-05-16T18:53:03.739Z,99757.75
2023-05-16T18:55:31.381Z,99784.22
2023-05-16T18:57:58.873Z,99765.56
2023-05-16T19:00:26.087Z,99786.03
2023-05-16T19:02:57.250Z,99765.22
2023-05-16T19:05:25.943Z,99757.22
2023-05-16T19:08:11.884Z,99774.41
2023-05-16T19:10:41.701Z,99764.25
2023-05-16T19:13:10.126Z,99775.94
2023-05-16T19:15:55.981Z,99785.69
2023-05-16T19:18:45.430Z,99768.78
2023-05-16T19:21:14.426Z,99749.66
2023-05-16T19:23:49.566Z,99756.72
2023-05-16T19:26:17.116Z,99763.22
2023-05-16T19:28:47.346Z,99775.50
2023-05-16T19:31:15.155Z,99764.28
2023-05-16T19:34:09.600Z,99777.69
2023-05-16T19:36:37.435Z,99764.72
2023-05-16T19:39:04.980Z,99757.31
2023-05-16T19:41:32.203Z,99757.56
2023-05-16T19:43:59.453Z,99760.78
2023-05-16T19:46:45.130Z,99773.19
2023-05-16T19:49:17.502Z,99761.31
2023-05-16T19:51:46.593Z,99780.22
2023-05-16T19:54:16.556Z,99779.53
2023-05-16T19:56:48.637Z,99772.63
2023-05-16T19:59:20.978Z,99771.50
2023-05-16T20:01:49.074Z,99795.69
2023-05-16T20:04:34.677Z,99792.16
2023-05-16T20:07:04.058Z,99775.31
2023-05-16T20:09:31.401Z,99792.91
2023-05-16T20:11:59.072Z,99780.28
2023-05-16T20:14:27.501Z,99792.34
2023-05-16T20:16:55.000Z,99794.75
2023-05-16T20:19:23.027Z,99803.63
2023-05-16T20:21:50.286Z,99806.84
2023-05-16T20:24:17.772Z,99812.25
2023-05-16T20:27:03.493Z,99806.19
2023-05-16T20:29:34.242Z,99809.13
2023-05-16T20:32:03.322Z,99809.13
2023-05-16T20:34:33.308Z,99798.38
2023-05-16T20:37:20.210Z,99790.22
2023-05-16T20:40:06.876Z,99802.31
2023-05-16T20:42:35.057Z,99792.31
2023-05-16T20:45:02.403Z,99784.34
2023-05-16T20:47:38.588Z,99792.97
2023-05-16T20:50:08.901Z,99810.94
2023-05-16T20:52:36.248Z,99795.13
2023-05-16T20:55:03.396Z,99804.25
2023-05-16T20:57:34.313Z,99800.53
2023-05-16T21:00:02.757Z,99808.91
2023-05-16T21:02:37.421Z,99793.03
2023-05-16T21:05:23.051Z,99798.13
2023-05-16T21:07:53.486Z,99788.03
2023-05-16T21:10:23.183Z,99795.91
2023-05-16T21:12:50.442Z,99798.88
2023-05-16T21:15:19.877Z,99799.94
2023-05-16T21:17:48.829Z,99793.25
2023-05-16T21:20:19.230Z,99794.88
2023-05-16T21:22:46.391Z,99785.31
2023-05-16T21:25:13.552Z,99791.94
2023-05-16T21:27:40.843Z,99781.22
2023-05-16T21:30:08.408Z,99780.06
2023-05-16T21:32:35.675Z,99791.25
2023-05-16T21:35:04.332Z,99781.69
2023-05-16T21:37:32.292Z,99775.28
2023-05-16T21:39:59.342Z,99775.50
2023-05-16T21:42:27.593Z,99771.28
2023-05-16T21:44:55.461Z,99775.09
2023-05-16T21:47:23.297Z,99776.81
2023-05-16T21:49:50.450Z,99770.16
2023-05-16T21:52:17.558Z,99765.19
2023-05-16T21:54:44.793Z,99781.56
2023-05-16T21:57:12.073Z,99782.31
2023-05-16T21:59:42.009Z,99766.66
2023-05-16T22:02:11.999Z,99779.13
2023-05-16T22:04:39.015Z,99779.63
2023-05-16T22:07:06.432Z,99774.31
2023-05-16T22:09:33.539Z,99772.91
2023-05-16T22:12:00.676Z,99778.59
2023-05-16T22:14:29.011Z,99768.56
2023-05-16T22:16:56.176Z,99775.16
2023-05-16T22:19:23.423Z,99768.91
2023-05-16T22:21:51.009Z,99775.03
2023-05-16T22:24:18.681Z,99772.00
2023-05-16T22:26:49.474Z,99774.94
2023-05-16T22:29:16.746Z,99767.34
2023-05-16T22:31:44.222Z,99784.63
2023-05-16T22:34:13.775Z,99763.69
2023-05-16T22:36:42.233Z,99769.56
2023-05-16T22:39:09.587Z,99752.19
2023-05-16T22:41:36.871Z,99770.53
2023-05-16T22:44:03.918Z,99778.06
2023-05-16T22:46:31.066Z,99769.84
2023-05-16T22:48:58.236Z,99773.69
2023-05-16T22:51:27.975Z,99772.44
2023-05-16T22:53:57.436Z,99779.13
2023-05-16T22:56:24.720Z,99780.06
2023-05-16T22:58:52.080Z,99776.56
2023-05-16T23:01:20.833Z,99783.50
2023-05-16T23:03:48.149Z,99786.66
2023-05-16T23:06:15.820Z,99773.00
2023-05-16T23:08:45.396Z,99786.09
2023-05-16T23:11:15.031Z,99784.91
2023-05-16T23:13:47.057Z,99776.19
2023-05-16T23:16:14.058Z,99777.25
2023-05-16T23:18:43.967Z,99781.47
2023-05-16T23:21:11.044Z,99780.53
2023-05-16T23:23:38.163Z,99781.22
2023-05-16T23:26:05.349Z,99775.94
2023-05-16T23:28:35.626Z,99777.59
2023-05-16T23:31:02.654Z,99786.41
2023-05-16T23:33:30.734Z,99797.44
2023-05-16T23:35:57.923Z,99787.69
2023-05-16T23:38:25.811Z,99789.78
2023-05-16T23:40:53.054Z,99788.97
2023-05-16T23:43:20.173Z,99782.84
2023-05-16T23:45:47.532Z,99772.34
2023-05-16T23:48:14.894Z,99780.25
2023-05-16T23:50:42.042Z,99795.06
2023-05-16T23:53:09.127Z,99793.28
2023-05-16T23:55:36.190Z,99796.91
2023-05-16T23:58:07.132Z,99793.03
